Time;durP1;ratioP1;P1;durP2;ratioP2;P2;SDS_P1;SDS_P2;PMS_P1;PMS_P2;Temp;Humidity;BMP_temperature;BMP_pressure;BME280_temperature;BME280_humidity;BME280_pressure;Samples;Min_cycle;Max_cycle;Signal;HPM_P1;HPM_P2
2021/12/04 00:00:47;;;;;;;5.68;4.60;;;;;;;;;;5035178;28;20206;-86
2021/12/04 00:03:15;;;;;;;3.80;3.50;;;;;;;;;;5036340;28;20222;-86
2021/12/04 00:05:47;;;;;;;3.95;3.65;;;;;;;;;;5036829;28;20198;-86
2021/12/04 00:08:14;;;;;;;6.32;4.43;;;;;;;;;;5036109;28;20194;-86
2021/12/04 00:10:43;;;;;;;4.45;3.97;;;;;;;;;;5036296;28;20278;-86
2021/12/04 00:13:10;;;;;;;4.28;3.75;;;;;;;;;;5035536;28;20222;-87
2021/12/04 00:15:38;;;;;;;5.50;4.45;;;;;;;;;;5035644;28;20202;-87
2021/12/04 00:18:06;;;;;;;5.30;4.80;;;;;;;;;;5036224;28;20190;-86
2021/12/04 00:20:35;;;;;;;6.38;4.80;;;;;;;;;;5035622;28;20192;-86
2021/12/04 00:23:03;;;;;;;5.95;3.80;;;;;;;;;;5035112;28;20265;-86
2021/12/04 00:25:33;;;;;;;4.07;3.45;;;;;;;;;;5034492;28;20202;-87
2021/12/04 00:28:03;;;;;;;6.10;4.03;;;;;;;;;;5035420;28;20195;-86
2021/12/04 00:30:30;;;;;;;3.70;3.40;;;;;;;;;;5035025;28;20199;-86
2021/12/04 00:33:02;;;;;;;4.88;4.47;;;;;;;;;;5035004;28;20214;-87
2021/12/04 00:35:39;;;;;;;4.75;4.35;;;;;;;;;;5034869;28;20186;-86
2021/12/04 00:49:12;;;;;;;3.88;3.50;;;;;;;;;;5035709;28;20200;-85
2021/12/04 00:51:43;;;;;;;6.32;4.13;;;;;;;;;;5035083;28;20253;-86
2021/12/04 00:54:12;;;;;;;6.07;4.25;;;;;;;;;;5034700;28;20217;-85
2021/12/04 00:56:42;;;;;;;4.28;3.97;;;;;;;;;;5034908;28;20540;-86
2021/12/04 00:59:12;;;;;;;3.67;3.38;;;;;;;;;;5034811;28;20205;-86
2021/12/04 01:01:41;;;;;;;8.30;4.90;;;;;;;;;;5034605;28;20230;-85
2021/12/04 01:04:11;;;;;;;3.75;3.45;;;;;;;;;;5033937;28;20633;-86
2021/12/04 01:06:40;;;;;;;4.85;4.40;;;;;;;;;;5034500;28;20187;-86
2021/12/04 01:09:10;;;;;;;3.90;3.55;;;;;;;;;;5033925;28;20645;-87
2021/12/04 01:11:43;;;;;;;6.13;5.53;;;;;;;;;;5033839;28;20226;-87
2021/12/04 01:14:16;;;;;;;4.22;3.90;;;;;;;;;;5033524;28;20206;-87
2021/12/04 01:16:45;;;;;;;3.67;3.38;;;;;;;;;;5034194;28;20335;-86
2021/12/04 01:19:14;;;;;;;4.85;4.35;;;;;;;;;;5034635;28;20194;-86
2021/12/04 01:21:42;;;;;;;5.15;4.65;;;;;;;;;;5032961;28;20268;-86
2021/12/04 01:24:10;;;;;;;4.47;3.63;;;;;;;;;;5034337;28;20206;-87
2021/12/04 01:26:37;;;;;;;4.85;4.07;;;;;;;;;;5034095;28;20198;-87
2021/12/04 01:29:06;;;;;;;4.93;4.43;;;;;;;;;;5014237;28;20203;-87
2021/12/04 01:31:35;;;;;;;6.05;4.97;;;;;;;;;;5015094;28;20227;-87
2021/12/04 01:34:04;;;;;;;7.55;5.53;;;;;;;;;;5014668;28;20214;-86
2021/12/04 01:36:33;;;;;;;4.97;4.53;;;;;;;;;;5014365;28;20199;-87
2021/12/04 01:39:05;;;;;;;4.32;3.92;;;;;;;;;;5030669;28;20657;-87
2021/12/04 01:41:34;;;;;;;5.70;5.20;;;;;;;;;;5034029;28;20234;-87
2021/12/04 01:44:05;;;;;;;5.18;4.68;;;;;;;;;;5033847;28;20193;-87
2021/12/04 01:46:35;;;;;;;5.65;4.70;;;;;;;;;;5033666;28;20194;-87
2021/12/04 01:49:03;;;;;;;6.13;5.40;;;;;;;;;;5033780;28;20667;-86
2021/12/04 01:51:31;;;;;;;5.15;4.75;;;;;;;;;;5033224;28;20226;-87
2021/12/04 01:53:58;;;;;;;6.03;5.43;;;;;;;;;;5033654;28;20770;-85
2021/12/04 01:56:31;;;;;;;5.20;4.70;;;;;;;;;;5034825;28;20200;-86
2021/12/04 01:58:59;;;;;;;5.30;4.80;;;;;;;;;;5034302;28;20679;-87
2021/12/04 02:01:30;;;;;;;6.65;4.38;;;;;;;;;;5033709;28;20718;-87
2021/12/04 02:04:00;;;;;;;5.38;4.88;;;;;;;;;;5033552;28;20202;-87
2021/12/04 02:06:30;;;;;;;4.80;4.40;;;;;;;;;;5033267;28;20561;-87
2021/12/04 02:08:58;;;;;;;5.60;5.10;;;;;;;;;;5034050;28;20766;-87
2021/12/04 02:11:27;;;;;;;5.63;5.03;;;;;;;;;;5032043;28;20222;-86
2021/12/04 02:13:55;;;;;;;5.18;4.75;;;;;;;;;;5034175;28;20198;-87
2021/12/04 02:16:23;;;;;;;7.88;5.18;;;;;;;;;;5033585;28;20194;-87
2021/12/04 02:18:51;;;;;;;5.88;5.38;;;;;;;;;;5033582;28;20193;-86
2021/12/04 02:21:27;;;;;;;6.57;4.60;;;;;;;;;;5033020;28;20548;-87
2021/12/04 02:23:55;;;;;;;5.38;4.88;;;;;;;;;;4993807;28;20540;-87
2021/12/04 02:26:23;;;;;;;5.70;5.10;;;;;;;;;;4993117;28;20246;-85
2021/12/04 02:28:50;;;;;;;5.53;5.03;;;;;;;;;;4993229;28;20208;-86
2021/12/04 02:31:25;;;;;;;6.18;3.95;;;;;;;;;;4993870;28;20195;-86
2021/12/04 02:33:53;;;;;;;5.80;5.05;;;;;;;;;;4993918;28;20190;-86
2021/12/04 02:36:22;;;;;;;5.95;5.45;;;;;;;;;;4993025;28;20223;-86
2021/12/04 02:38:52;;;;;;;8.05;5.60;;;;;;;;;;4993399;28;20572;-87
2021/12/04 02:41:21;;;;;;;6.15;5.55;;;;;;;;;;4994187;28;20192;-86
2021/12/04 02:43:49;;;;;;;5.72;5.22;;;;;;;;;;4993135;28;20203;-86
2021/12/04 02:46:19;;;;;;;4.53;4.13;;;;;;;;;;4993170;28;20196;-87
2021/12/04 02:48:48;;;;;;;5.75;5.10;;;;;;;;;;4993609;28;20207;-86
2021/12/04 02:51:16;;;;;;;5.22;4.82;;;;;;;;;;4994474;28;20185;-87
2021/12/04 02:53:44;;;;;;;5.97;5.38;;;;;;;;;;5013250;28;20193;-86
2021/12/04 02:56:13;;;;;;;4.80;4.40;;;;;;;;;;5013116;28;20215;-86
2021/12/04 02:58:49;;;;;;;5.70;5.20;;;;;;;;;;5012905;28;20193;-87
2021/12/04 03:01:16;;;;;;;5.00;4.50;;;;;;;;;;5012451;28;20231;-87
2021/12/04 03:03:45;;;;;;;4.75;4.25;;;;;;;;;;5011768;28;20203;-86
2021/12/04 03:06:13;;;;;;;5.40;4.90;;;;;;;;;;5012275;28;20234;-86
2021/12/04 03:08:41;;;;;;;5.32;4.80;;;;;;;;;;5012455;28;20207;-87
2021/12/04 03:11:09;;;;;;;4.85;4.35;;;;;;;;;;5012519;28;20267;-86
2021/12/04 03:13:47;;;;;;;4.45;4.05;;;;;;;;;;5012244;28;20211;-87
2021/12/04 03:16:15;;;;;;;4.80;4.25;;;;;;;;;;5012587;28;20227;-87
2021/12/04 03:18:42;;;;;;;5.43;4.93;;;;;;;;;;5016014;28;20187;-87
2021/12/04 03:21:09;;;;;;;3.65;3.35;;;;;;;;;;5016010;28;20204;-87
2021/12/04 03:23:51;;;;;;;3.88;3.55;;;;;;;;;;5015566;28;20241;-87
2021/12/04 03:26:19;;;;;;;5.13;4.63;;;;;;;;;;5016155;28;20192;-87
2021/12/04 03:28:50;;;;;;;4.85;4.45;;;;;;;;;;5015960;28;20191;-87
2021/12/04 03:31:21;;;;;;;5.85;5.07;;;;;;;;;;5015804;28;20209;-87
2021/12/04 03:42:09;;;;;;;6.03;4.60;;;;;;;;;;5035507;28;20349;-87
2021/12/04 03:44:40;;;;;;;5.57;4.97;;;;;;;;;;5036008;28;20186;-86
2021/12/04 03:47:09;;;;;;;4.85;4.38;;;;;;;;;;5035815;28;20266;-87
2021/12/04 03:49:37;;;;;;;5.13;4.63;;;;;;;;;;5035505;28;20277;-85
2021/12/04 03:52:06;;;;;;;5.80;5.15;;;;;;;;;;5035634;28;20282;-86
2021/12/04 03:54:33;;;;;;;6.60;4.65;;;;;;;;;;5036018;28;20197;-85
2021/12/04 03:57:03;;;;;;;4.78;4.38;;;;;;;;;;5035365;28;20718;-86
2021/12/04 03:59:31;;;;;;;4.15;3.85;;;;;;;;;;5035231;28;20239;-87
2021/12/04 04:02:01;;;;;;;4.57;4.18;;;;;;;;;;5034826;28;20216;-87
2021/12/04 04:04:29;;;;;;;4.82;4.40;;;;;;;;;;5035338;28;20187;-87
2021/12/04 04:07:00;;;;;;;4.70;3.95;;;;;;;;;;5035100;28;20202;-87
2021/12/04 04:09:28;;;;;;;4.97;4.57;;;;;;;;;;5035877;28;20190;-86
2021/12/04 04:11:55;;;;;;;4.78;4.35;;;;;;;;;;5036299;28;20242;-84
2021/12/04 04:14:24;;;;;;;4.75;4.30;;;;;;;;;;5035403;28;20273;-86
2021/12/04 04:16:53;;;;;;;4.50;4.10;;;;;;;;;;5034775;28;20203;-86
2021/12/04 04:19:24;;;;;;;3.85;3.50;;;;;;;;;;5034807;28;20210;-87
2021/12/04 04:21:56;;;;;;;5.00;4.60;;;;;;;;;;5034232;28;20280;-87
2021/12/04 04:24:27;;;;;;;4.95;4.45;;;;;;;;;;5034868;28;20194;-85
2021/12/04 04:26:55;;;;;;;4.32;3.70;;;;;;;;;;5034700;28;20183;-86
2021/12/04 04:29:24;;;;;;;3.92;3.63;;;;;;;;;;5034187;28;20183;-87
2021/12/04 04:32:00;;;;;;;5.05;4.57;;;;;;;;;;5034699;28;20627;-85
2021/12/04 04:34:33;;;;;;;5.22;4.82;;;;;;;;;;5035387;28;20194;-86
2021/12/04 04:37:13;;;;;;;4.88;4.43;;;;;;;;;;5034824;28;20629;-86
2021/12/04 04:59:40;;;;;;;5.53;5.00;;;;;;;;;;5017768;28;20194;-85
2021/12/04 05:13:23;;;;;;;5.43;4.93;;;;;;;;;;4976032;28;20239;-84
2021/12/04 05:15:58;;;;;;;5.75;5.10;;;;;;;;;;5022120;28;20229;-85
2021/12/04 05:18:38;;;;;;;5.82;5.25;;;;;;;;;;5036978;28;20599;-86
2021/12/04 05:21:11;;;;;;;4.80;4.35;;;;;;;;;;5037258;28;20198;-86
2021/12/04 05:23:44;;;;;;;5.15;4.63;;;;;;;;;;5036990;28;20313;-85
2021/12/04 05:26:17;;;;;;;4.90;4.25;;;;;;;;;;5037374;28;20191;-85
2021/12/04 05:28:47;;;;;;;4.72;4.30;;;;;;;;;;5037400;28;20203;-85
2021/12/04 05:31:15;;;;;;;4.57;4.15;;;;;;;;;;5037120;28;20187;-85
2021/12/04 05:33:45;;;;;;;5.20;4.60;;;;;;;;;;5037420;28;20187;-86
2021/12/04 05:36:13;;;;;;;5.32;4.82;;;;;;;;;;5035741;28;20207;-86
2021/12/04 05:38:43;;;;;;;4.35;3.97;;;;;;;;;;5036822;28;20193;-86
2021/12/04 05:41:12;;;;;;;4.93;4.47;;;;;;;;;;5035479;28;20183;-85
2021/12/04 05:43:39;;;;;;;5.32;4.80;;;;;;;;;;5037178;28;20201;-85
2021/12/04 05:46:13;;;;;;;3.63;3.33;;;;;;;;;;5036588;28;20289;-85
2021/12/04 05:48:45;;;;;;;3.53;3.22;;;;;;;;;;5035897;28;20202;-84
2021/12/04 05:54:06;;;;;;;4.72;4.22;;;;;;;;;;4999144;28;20200;-84
2021/12/04 05:56:36;;;;;;;5.28;3.50;;;;;;;;;;5017368;28;20207;-85
2021/12/04 05:59:05;;;;;;;4.45;4.05;;;;;;;;;;5014678;28;20582;-86
2021/12/04 06:01:34;;;;;;;4.90;4.18;;;;;;;;;;5026588;28;20232;-85
2021/12/04 06:04:01;;;;;;;4.60;4.15;;;;;;;;;;5035366;28;20206;-85
2021/12/04 06:06:29;;;;;;;5.07;4.47;;;;;;;;;;5036063;28;20193;-86
2021/12/04 06:08:57;;;;;;;3.53;3.33;;;;;;;;;;5035597;28;20179;-86
2021/12/04 06:11:29;;;;;;;4.18;3.80;;;;;;;;;;5035001;28;20229;-86
2021/12/04 06:13:56;;;;;;;4.03;3.65;;;;;;;;;;5035251;28;20216;-86
2021/12/04 06:16:24;;;;;;;3.45;3.22;;;;;;;;;;5034931;28;20266;-85
2021/12/04 06:18:53;;;;;;;5.40;4.90;;;;;;;;;;5016100;28;20202;-84
2021/12/04 06:24:09;;;;;;;5.20;3.53;;;;;;;;;;5036227;28;20245;-85
2021/12/04 06:26:38;;;;;;;4.15;3.75;;;;;;;;;;5035492;28;20273;-84
2021/12/04 06:29:06;;;;;;;4.00;3.70;;;;;;;;;;5035507;28;20669;-84
2021/12/04 06:31:33;;;;;;;3.55;3.35;;;;;;;;;;5035811;28;20715;-85
2021/12/04 06:34:01;;;;;;;3.50;3.20;;;;;;;;;;5036423;28;20277;-84
2021/12/04 06:36:29;;;;;;;3.45;3.25;;;;;;;;;;5036289;28;20209;-85
2021/12/04 06:38:56;;;;;;;3.05;2.80;;;;;;;;;;5034801;28;20807;-84
2021/12/04 06:41:24;;;;;;;3.97;3.60;;;;;;;;;;5035399;28;20246;-85
2021/12/04 06:43:55;;;;;;;3.90;3.50;;;;;;;;;;5028125;28;20202;-85
2021/12/04 06:46:23;;;;;;;3.47;3.25;;;;;;;;;;5033624;28;20226;-84
2021/12/04 06:49:01;;;;;;;4.07;3.00;;;;;;;;;;5028932;28;20201;-85
2021/12/04 06:51:32;;;;;;;3.90;3.50;;;;;;;;;;5023332;28;20211;-85
2021/12/04 06:54:02;;;;;;;3.35;3.05;;;;;;;;;;5019831;28;20245;-84
2021/12/04 06:56:34;;;;;;;3.17;2.80;;;;;;;;;;5034226;28;20192;-85
2021/12/04 06:59:06;;;;;;;3.80;3.33;;;;;;;;;;5029024;28;20258;-84
2021/12/04 07:01:35;;;;;;;3.17;2.88;;;;;;;;;;5035086;28;20219;-85
2021/12/04 07:04:02;;;;;;;3.45;3.15;;;;;;;;;;5023937;28;20274;-85
2021/12/04 07:06:30;;;;;;;3.28;2.97;;;;;;;;;;5022592;28;20191;-85
2021/12/04 07:08:58;;;;;;;3.83;3.45;;;;;;;;;;5032895;28;20230;-84
2021/12/04 07:11:26;;;;;;;4.53;4.10;;;;;;;;;;5031542;28;20709;-85
2021/12/04 07:13:53;;;;;;;3.70;3.40;;;;;;;;;;5029072;28;20574;-85
2021/12/04 07:16:23;;;;;;;4.55;4.15;;;;;;;;;;5032297;28;20209;-85
2021/12/04 07:18:50;;;;;;;4.40;4.05;;;;;;;;;;5029313;28;20309;-84
2021/12/04 07:21:18;;;;;;;2.83;2.63;;;;;;;;;;5030049;28;20184;-84
2021/12/04 07:23:46;;;;;;;3.78;3.08;;;;;;;;;;5018373;28;20246;-84
2021/12/04 07:26:14;;;;;;;3.47;3.17;;;;;;;;;;5031357;28;20197;-84
2021/12/04 07:28:41;;;;;;;4.28;3.88;;;;;;;;;;5031224;28;20203;-84
2021/12/04 07:31:09;;;;;;;4.93;4.43;;;;;;;;;;5039320;28;20191;-84
2021/12/04 07:33:38;;;;;;;3.97;3.65;;;;;;;;;;5035793;28;20565;-84
2021/12/04 07:36:06;;;;;;;7.07;4.63;;;;;;;;;;5020076;28;20187;-84
2021/12/04 07:38:34;;;;;;;4.35;3.95;;;;;;;;;;5038975;28;20265;-84
2021/12/04 07:41:03;;;;;;;4.90;4.40;;;;;;;;;;5036306;28;20186;-84
2021/12/04 07:43:31;;;;;;;3.72;3.42;;;;;;;;;;5029433;28;20191;-84
2021/12/04 07:45:59;;;;;;;4.03;3.45;;;;;;;;;;5030162;28;20191;-83
2021/12/04 07:48:29;;;;;;;4.57;4.03;;;;;;;;;;5038713;28;20633;-83
2021/12/04 07:51:01;;;;;;;3.22;2.92;;;;;;;;;;5036789;28;20277;-84
2021/12/04 07:53:28;;;;;;;4.03;3.72;;;;;;;;;;5031973;28;20250;-83
2021/12/04 07:55:56;;;;;;;3.00;2.80;;;;;;;;;;5021725;28;20199;-84
2021/12/04 07:58:23;;;;;;;2.92;2.72;;;;;;;;;;5018140;28;20231;-84
2021/12/04 08:00:56;;;;;;;3.40;3.10;;;;;;;;;;5030551;28;20208;-83
2021/12/04 08:03:23;;;;;;;3.75;3.45;;;;;;;;;;5039163;28;20607;-83
2021/12/04 08:05:51;;;;;;;3.75;3.45;;;;;;;;;;5037918;28;20183;-82
2021/12/04 08:08:20;;;;;;;4.72;4.25;;;;;;;;;;5037402;28;20209;-83
2021/12/04 08:10:47;;;;;;;4.47;4.18;;;;;;;;;;5032589;28;20674;-83
2021/12/04 08:13:15;;;;;;;5.18;4.68;;;;;;;;;;5035299;28;20236;-84
2021/12/04 08:15:42;;;;;;;3.90;3.50;;;;;;;;;;5036457;28;20199;-83
2021/12/04 08:18:10;;;;;;;4.00;3.70;;;;;;;;;;5037283;28;20203;-82
2021/12/04 08:20:37;;;;;;;4.38;4.07;;;;;;;;;;5036263;28;20190;-83
2021/12/04 08:23:05;;;;;;;4.90;4.47;;;;;;;;;;5036699;28;20244;-84
2021/12/04 08:25:35;;;;;;;5.03;4.63;;;;;;;;;;5037848;28;20264;-83
2021/12/04 08:28:03;;;;;;;5.28;4.85;;;;;;;;;;5037497;28;20198;-83
2021/12/04 08:30:33;;;;;;;6.00;5.13;;;;;;;;;;5037020;28;20573;-84
2021/12/04 08:33:02;;;;;;;4.78;4.10;;;;;;;;;;5037887;28;20317;-83
2021/12/04 08:35:31;;;;;;;4.70;4.25;;;;;;;;;;5037531;28;20285;-84
2021/12/04 08:37:59;;;;;;;5.00;4.60;;;;;;;;;;5027983;28;20214;-83
2021/12/04 08:40:28;;;;;;;4.55;4.15;;;;;;;;;;5021045;28;20191;-83
2021/12/04 08:42:58;;;;;;;4.38;4.07;;;;;;;;;;5028791;28;20259;-85
2021/12/04 08:45:27;;;;;;;4.85;4.45;;;;;;;;;;5035229;28;20205;-84
2021/12/04 08:47:54;;;;;;;3.78;3.47;;;;;;;;;;5034105;28;20190;-85
2021/12/04 08:50:26;;;;;;;4.70;4.30;;;;;;;;;;5017021;28;20212;-84
2021/12/04 08:52:54;;;;;;;4.45;4.07;;;;;;;;;;5026960;28;20260;-84
2021/12/04 08:55:24;;;;;;;4.30;4.00;;;;;;;;;;5033922;28;20206;-83
2021/12/04 08:57:52;;;;;;;4.38;4.07;;;;;;;;;;5022665;28;20215;-83
2021/12/04 09:00:27;;;;;;;4.70;4.30;;;;;;;;;;5016574;28;20195;-82
2021/12/04 09:02:55;;;;;;;4.25;3.90;;;;;;;;;;5030407;28;20230;-83
2021/12/04 09:05:24;;;;;;;4.15;3.85;;;;;;;;;;5035821;28;20239;-82
2021/12/04 09:07:52;;;;;;;4.03;3.72;;;;;;;;;;5027392;28;20285;-83
2021/12/04 09:10:21;;;;;;;4.47;4.18;;;;;;;;;;5016658;28;20525;-82
2021/12/04 09:12:50;;;;;;;4.20;3.83;;;;;;;;;;5034356;28;20218;-82
2021/12/04 09:15:22;;;;;;;3.95;3.65;;;;;;;;;;5016375;28;20198;-82
2021/12/04 09:17:49;;;;;;;3.75;3.45;;;;;;;;;;5022338;28;20195;-82
2021/12/04 09:20:17;;;;;;;3.83;3.33;;;;;;;;;;5034445;28;20199;-82
2021/12/04 09:22:46;;;;;;;3.67;2.92;;;;;;;;;;5017934;28;20231;-82
2021/12/04 09:25:20;;;;;;;4.03;3.53;;;;;;;;;;5034792;28;20194;-82
2021/12/04 09:28:01;;;;;;;3.67;3.38;;;;;;;;;;5035186;28;20253;-83
2021/12/04 09:30:57;;;;;;;3.95;3.65;;;;;;;;;;5031579;28;20198;-83
2021/12/04 09:36:28;;;;;;;3.47;3.28;;;;;;;;;;5030018;28;20182;-83
2021/12/04 10:01:17;;;;;;;4.38;3.97;;;;;;;;;;5025992;28;20189;-82
2021/12/04 10:04:07;;;;;;;3.38;3.08;;;;;;;;;;5029022;28;20560;-83
2021/12/04 10:20:55;;;;;;;2.70;2.50;;;;;;;;;;5018544;28;20682;-83
2021/12/04 10:23:43;;;;;;;2.72;2.53;;;;;;;;;;5021256;28;20281;-83
2021/12/04 10:32:24;;;;;;;3.10;2.90;;;;;;;;;;5016659;28;20253;-82
2021/12/04 10:34:53;;;;;;;3.30;3.00;;;;;;;;;;5028921;28;20190;-81
2021/12/04 10:37:26;;;;;;;2.95;2.75;;;;;;;;;;5036293;28;20657;-82
2021/12/04 10:39:59;;;;;;;3.00;2.80;;;;;;;;;;5037637;28;20213;-82
2021/12/04 10:42:33;;;;;;;3.08;2.85;;;;;;;;;;5018230;28;20346;-83
2021/12/04 10:45:01;;;;;;;3.05;2.88;;;;;;;;;;5020735;28;20191;-83
2021/12/04 10:47:29;;;;;;;3.08;2.88;;;;;;;;;;5017934;28;20237;-83
2021/12/04 10:50:10;;;;;;;2.90;2.65;;;;;;;;;;5017955;28;20203;-84
2021/12/04 10:52:50;;;;;;;3.88;3.58;;;;;;;;;;5018277;28;20223;-83
2021/12/04 10:55:26;;;;;;;3.67;3.35;;;;;;;;;;5019098;28;20194;-84
2021/12/04 11:00:57;;;;;;;3.45;3.15;;;;;;;;;;5021874;28;20273;-83
2021/12/04 11:06:39;;;;;;;3.30;3.00;;;;;;;;;;5030222;28;20437;-83
2021/12/04 11:26:48;;;;;;;3.38;3.08;;;;;;;;;;5091570;28;20788;-83
2021/12/04 11:35:12;;;;;;;2.80;2.60;;;;;;;;;;5050960;28;20200;-83
2021/12/04 11:37:59;;;;;;;1.92;1.83;;;;;;;;;;5050981;28;20209;-82
2021/12/04 11:43:23;;;;;;;2.80;2.60;;;;;;;;;;5051282;28;20603;-83
2021/12/04 11:46:02;;;;;;;3.28;2.97;;;;;;;;;;5051560;28;20240;-83
2021/12/04 11:48:31;;;;;;;3.28;3.08;;;;;;;;;;5051133;28;20197;-83
2021/12/04 11:51:01;;;;;;;3.50;3.20;;;;;;;;;;5050960;28;20197;-83
2021/12/04 11:53:30;;;;;;;3.25;3.05;;;;;;;;;;5051032;28;20232;-82
2021/12/04 11:56:00;;;;;;;3.67;3.22;;;;;;;;;;5049184;28;20568;-84
2021/12/04 11:58:32;;;;;;;4.05;3.65;;;;;;;;;;5049953;28;20190;-82
2021/12/04 12:01:05;;;;;;;5.28;4.78;;;;;;;;;;5049651;28;20190;-82
2021/12/04 12:03:36;;;;;;;3.58;3.28;;;;;;;;;;5048168;28;20209;-83
2021/12/04 12:06:07;;;;;;;3.40;3.10;;;;;;;;;;5049166;28;20699;-83
2021/12/04 12:08:38;;;;;;;3.22;2.83;;;;;;;;;;5050283;28;20233;-83
2021/12/04 12:11:09;;;;;;;2.67;2.47;;;;;;;;;;5050421;28;20193;-83
2021/12/04 12:13:42;;;;;;;2.40;2.22;;;;;;;;;;5050191;28;20198;-81
2021/12/04 12:16:16;;;;;;;2.97;2.75;;;;;;;;;;5050496;28;20200;-82
2021/12/04 12:18:52;;;;;;;3.63;3.33;;;;;;;;;;5050024;28;20208;-81
2021/12/04 12:21:28;;;;;;;2.38;2.13;;;;;;;;;;5049982;28;20205;-81
2021/12/04 12:24:25;;;;;;;3.05;2.75;;;;;;;;;;5050038;28;20632;-81
2021/12/04 12:27:22;;;;;;;3.42;3.13;;;;;;;;;;5052185;28;20289;-82
2021/12/04 12:38:29;;;;;;;2.33;2.13;;;;;;;;;;5056371;28;20201;-84
2021/12/04 12:41:05;;;;;;;2.85;2.65;;;;;;;;;;5056977;28;20193;-83
2021/12/04 12:43:47;;;;;;;3.13;2.75;;;;;;;;;;5057015;28;20188;-81
2021/12/04 12:46:17;;;;;;;3.10;2.83;;;;;;;;;;5056716;28;20300;-82
2021/12/04 12:48:52;;;;;;;2.92;2.72;;;;;;;;;;5056762;28;20188;-82
2021/12/04 12:51:29;;;;;;;2.63;2.33;;;;;;;;;;5056406;28;20192;-82
2021/12/04 12:53:58;;;;;;;2.28;2.08;;;;;;;;;;5056674;28;20277;-82
2021/12/04 12:56:31;;;;;;;2.63;2.42;;;;;;;;;;5056633;28;20182;-83
2021/12/04 12:59:03;;;;;;;2.70;2.50;;;;;;;;;;5056218;28;20235;-81
2021/12/04 13:13:43;;;;;;;2.55;2.22;;;;;;;;;;5018935;28;20229;-82
2021/12/04 13:16:17;;;;;;;2.60;2.40;;;;;;;;;;5022218;28;20577;-82
2021/12/04 13:18:56;;;;;;;2.65;2.45;;;;;;;;;;5035178;28;20200;-81
2021/12/04 13:21:25;;;;;;;2.30;2.10;;;;;;;;;;5035236;28;20194;-81
2021/12/04 13:23:56;;;;;;;2.40;2.20;;;;;;;;;;5036085;28;20218;-82
2021/12/04 13:26:28;;;;;;;2.10;2.00;;;;;;;;;;5015586;28;20297;-81
2021/12/04 13:28:58;;;;;;;2.50;2.30;;;;;;;;;;5016065;28;20196;-82
2021/12/04 13:31:26;;;;;;;2.20;2.10;;;;;;;;;;5015668;28;20210;-81
2021/12/04 13:33:56;;;;;;;4.32;2.55;;;;;;;;;;5014947;28;20285;-82
2021/12/04 13:36:27;;;;;;;2.33;2.20;;;;;;;;;;5015837;28;20203;-82
2021/12/04 13:38:58;;;;;;;2.10;1.90;;;;;;;;;;5015179;28;20190;-82
2021/12/04 13:41:28;;;;;;;2.10;1.98;;;;;;;;;;5015391;28;20195;-81
2021/12/04 13:43:58;;;;;;;2.28;2.08;;;;;;;;;;5015202;28;20199;-82
2021/12/04 13:46:27;;;;;;;1.70;1.60;;;;;;;;;;5015677;28;20207;-82
2021/12/04 13:49:03;;;;;;;2.17;2.05;;;;;;;;;;5014505;28;20684;-81
2021/12/04 13:51:31;;;;;;;2.00;1.80;;;;;;;;;;5014968;28;20222;-81
2021/12/04 13:54:01;;;;;;;1.60;1.50;;;;;;;;;;5015041;28;20565;-81
2021/12/04 13:56:30;;;;;;;2.75;2.55;;;;;;;;;;5015468;28;20195;-82
2021/12/04 13:59:01;;;;;;;3.10;2.53;;;;;;;;;;5015175;28;20187;-82
2021/12/04 14:01:36;;;;;;;1.88;1.70;;;;;;;;;;5015933;28;20227;-82
2021/12/04 14:04:07;;;;;;;2.10;1.90;;;;;;;;;;5015132;28;20202;-82
2021/12/04 14:06:35;;;;;;;1.95;1.85;;;;;;;;;;5015097;28;20298;-81
2021/12/04 14:09:08;;;;;;;2.45;2.25;;;;;;;;;;5014148;28;20195;-82
2021/12/04 14:11:38;;;;;;;2.00;1.80;;;;;;;;;;4998737;28;20227;-81
2021/12/04 14:14:20;;;;;;;2.80;2.50;;;;;;;;;;5015649;28;20188;-82
2021/12/04 14:16:50;;;;;;;3.25;2.47;;;;;;;;;;5015402;28;20190;-81
2021/12/04 14:19:24;;;;;;;2.50;2.30;;;;;;;;;;5014721;28;20581;-82
2021/12/04 14:21:56;;;;;;;2.38;2.17;;;;;;;;;;5013134;28;20591;-81
2021/12/04 14:24:33;;;;;;;3.58;3.15;;;;;;;;;;5021766;28;20286;-81
2021/12/04 14:27:04;;;;;;;2.78;2.58;;;;;;;;;;5053085;28;20216;-81
2021/12/04 14:29:34;;;;;;;7.38;6.30;;;;;;;;;;5040396;28;20665;-82
2021/12/04 14:32:02;;;;;;;10.10;7.57;;;;;;;;;;5014352;28;20782;-82
2021/12/04 14:34:31;;;;;;;8.98;8.13;;;;;;;;;;5032080;28;20190;-82
2021/12/04 14:37:17;;;;;;;4.82;4.43;;;;;;;;;;5034376;28;20194;-84
2021/12/04 14:39:47;;;;;;;3.17;2.90;;;;;;;;;;5033881;28;20187;-82
2021/12/04 14:42:19;;;;;;;2.75;2.55;;;;;;;;;;5033571;28;20230;-81
2021/12/04 14:44:51;;;;;;;2.55;2.42;;;;;;;;;;5034136;28;20190;-80
2021/12/04 14:47:20;;;;;;;3.15;2.45;;;;;;;;;;5034378;28;20206;-81
2021/12/04 14:49:51;;;;;;;3.22;2.90;;;;;;;;;;5034942;28;20563;-81
2021/12/04 14:52:22;;;;;;;2.80;2.60;;;;;;;;;;5035102;28;20245;-83
2021/12/04 14:54:50;;;;;;;1.95;1.85;;;;;;;;;;5034241;28;20182;-81
2021/12/04 14:57:22;;;;;;;1.95;1.85;;;;;;;;;;5034607;28;20186;-81
2021/12/04 15:00:01;;;;;;;2.42;2.30;;;;;;;;;;5033675;28;20240;-81
2021/12/04 15:02:29;;;;;;;2.13;2.03;;;;;;;;;;5038482;28;20248;-81
2021/12/04 15:04:58;;;;;;;2.63;2.38;;;;;;;;;;5037764;28;20183;-81
2021/12/04 15:07:31;;;;;;;2.88;2.65;;;;;;;;;;5054467;28;20573;-83
2021/12/04 15:09:58;;;;;;;2.45;2.20;;;;;;;;;;5054043;28;20193;-81
2021/12/04 15:12:29;;;;;;;2.33;2.13;;;;;;;;;;5054282;28;20228;-82
2021/12/04 15:15:02;;;;;;;3.03;2.70;;;;;;;;;;5054516;28;20695;-82
2021/12/04 15:17:30;;;;;;;3.47;3.17;;;;;;;;;;5054154;28;20190;-79
2021/12/04 15:20:06;;;;;;;3.50;3.20;;;;;;;;;;5048966;28;20190;-79
2021/12/04 15:22:36;;;;;;;3.03;2.72;;;;;;;;;;5039206;28;20218;-80
2021/12/04 15:25:09;;;;;;;3.78;3.58;;;;;;;;;;5033382;28;20226;-80
2021/12/04 15:27:36;;;;;;;6.70;6.10;;;;;;;;;;5046110;28;20236;-80
2021/12/04 15:30:10;;;;;;;5.57;5.13;;;;;;;;;;5054132;28;20186;-79
2021/12/04 15:32:40;;;;;;;5.05;4.60;;;;;;;;;;5040974;28;20218;-79
2021/12/04 15:35:25;;;;;;;4.20;3.80;;;;;;;;;;5032189;28;20191;-80
2021/12/04 15:38:02;;;;;;;3.92;3.47;;;;;;;;;;5033289;28;20206;-80
2021/12/04 15:40:38;;;;;;;3.33;3.03;;;;;;;;;;5033532;28;20615;-80
2021/12/04 15:43:13;;;;;;;3.13;2.83;;;;;;;;;;5032474;28;20309;-80
2021/12/04 15:45:56;;;;;;;3.90;3.17;;;;;;;;;;5033935;28;20213;-81
2021/12/04 15:53:51;;;;;;;4.15;3.75;;;;;;;;;;5394796;22;20659;-81
2021/12/04 15:56:31;;;;;;;3.38;3.10;;;;;;;;;;5033784;28;20194;-81
2021/12/04 15:58:58;;;;;;;4.85;4.45;;;;;;;;;;5032569;28;20592;-80
2021/12/04 16:01:30;;;;;;;3.65;3.35;;;;;;;;;;5033086;28;20193;-81
2021/12/04 16:03:58;;;;;;;4.05;3.33;;;;;;;;;;5032628;28;20191;-80
2021/12/04 16:06:39;;;;;;;3.83;3.53;;;;;;;;;;5032223;28;20206;-80
2021/12/04 16:09:08;;;;;;;3.78;3.47;;;;;;;;;;5031127;28;20206;-81
2021/12/04 16:11:38;;;;;;;3.15;2.85;;;;;;;;;;5034180;28;20222;-81
2021/12/04 16:14:07;;;;;;;4.00;2.92;;;;;;;;;;5036172;28;20652;-81
2021/12/04 16:16:40;;;;;;;3.10;2.80;;;;;;;;;;5035942;28;20222;-80
2021/12/04 16:19:09;;;;;;;6.07;3.50;;;;;;;;;;5036129;28;20201;-80
2021/12/04 16:21:39;;;;;;;3.67;3.38;;;;;;;;;;5025509;28;20754;-80
2021/12/04 16:24:07;;;;;;;4.40;4.00;;;;;;;;;;5036517;28;20218;-81
2021/12/04 16:26:38;;;;;;;4.30;3.90;;;;;;;;;;5036702;28;20252;-81
2021/12/04 16:29:10;;;;;;;4.05;3.63;;;;;;;;;;5036960;28;20678;-81
2021/12/04 16:32:14;;;;;;;4.45;4.05;;;;;;;;;;5036518;28;20219;-80
2021/12/04 16:37:37;;;;;;;3.63;3.33;;;;;;;;;;5036055;28;20190;-81
2021/12/04 16:40:08;;;;;;;4.20;3.35;;;;;;;;;;5036308;28;20221;-82
2021/12/04 16:42:37;;;;;;;3.83;3.50;;;;;;;;;;5035397;28;20223;-81
2021/12/04 16:45:11;;;;;;;3.47;3.17;;;;;;;;;;5060510;22;20261;-83
2021/12/04 16:47:43;;;;;;;3.65;3.35;;;;;;;;;;5018808;28;20270;-84
2021/12/04 16:50:16;;;;;;;4.47;3.38;;;;;;;;;;5018006;28;20234;-83
2021/12/04 16:58:18;;;;;;;3.95;3.65;;;;;;;;;;4993633;28;20688;-85
2021/12/04 17:00:54;;;;;;;3.20;2.90;;;;;;;;;;5002977;28;20569;-84
2021/12/04 17:03:23;;;;;;;3.50;3.20;;;;;;;;;;5000857;28;20199;-87
2021/12/04 17:05:51;;;;;;;3.05;2.85;;;;;;;;;;4998394;28;20200;-84
2021/12/04 17:08:23;;;;;;;2.97;2.75;;;;;;;;;;4997527;28;20220;-84
2021/12/04 17:10:52;;;;;;;4.65;4.25;;;;;;;;;;4997157;28;20254;-87
2021/12/04 17:13:20;;;;;;;3.42;3.13;;;;;;;;;;4996629;28;20562;-85
2021/12/04 17:15:48;;;;;;;3.17;2.90;;;;;;;;;;4995669;28;20204;-88
2021/12/04 17:18:17;;;;;;;4.05;3.65;;;;;;;;;;4995503;28;20199;-86
2021/12/04 17:20:45;;;;;;;4.72;4.32;;;;;;;;;;5007596;28;20207;-85
2021/12/04 17:23:13;;;;;;;3.70;3.33;;;;;;;;;;5016857;28;20206;-85
2021/12/04 17:25:42;;;;;;;2.80;2.60;;;;;;;;;;5018120;28;20243;-84
2021/12/04 17:28:12;;;;;;;2.95;2.75;;;;;;;;;;5017628;28;20699;-85
2021/12/04 17:30:41;;;;;;;2.90;2.70;;;;;;;;;;5022812;28;21624;-84
2021/12/04 17:33:10;;;;;;;4.00;3.70;;;;;;;;;;5026691;28;20234;-84
2021/12/04 17:35:38;;;;;;;3.33;3.13;;;;;;;;;;5026956;28;20199;-84
2021/12/04 17:38:11;;;;;;;3.08;2.88;;;;;;;;;;5016471;28;20213;-84
2021/12/04 17:40:42;;;;;;;3.08;2.80;;;;;;;;;;5016112;28;20207;-85
2021/12/04 17:43:09;;;;;;;3.90;3.60;;;;;;;;;;5015209;28;20225;-83
2021/12/04 17:45:37;;;;;;;3.10;2.90;;;;;;;;;;5033481;28;20237;-84
2021/12/04 17:48:06;;;;;;;3.83;3.42;;;;;;;;;;5035437;28;20252;-84
2021/12/04 17:50:39;;;;;;;2.50;2.30;;;;;;;;;;5034755;28;20187;-84
2021/12/04 17:53:07;;;;;;;3.90;3.53;;;;;;;;;;5036188;28;20198;-85